Time;durP1;ratioP1;P1;durP2;ratioP2;P2;SDS_P1;SDS_P2;PMS_P1;PMS_P2;Temp;Humidity;BMP_temperature;BMP_pressure;BME280_temperature;BME280_humidity;BME280_pressure;Samples;Min_cycle;Max_cycle;Signal;HPM_P1;HPM_P2
2023/09/15 00:01:15;;;;;;;1.50;1.10;;;;;;;;;;6125332;23;20006;-79
2023/09/15 00:03:42;;;;;;;1.00;0.90;;;;;;;;;;6099190;23;20164;-78
2023/09/15 00:06:09;;;;;;;1.20;1.10;;;;;;;;;;6125202;23;20006;-78
2023/09/15 00:08:35;;;;;;;2.40;0.98;;;;;;;;;;6134584;23;19998;-79
2023/09/15 00:11:01;;;;;;;1.88;0.98;;;;;;;;;;6134733;23;19998;-78
2023/09/15 00:13:27;;;;;;;0.93;0.88;;;;;;;;;;6134586;23;19998;-78
2023/09/15 00:15:53;;;;;;;1.15;1.05;;;;;;;;;;6134473;23;20006;-78
2023/09/15 00:18:19;;;;;;;1.02;0.93;;;;;;;;;;6135376;23;20032;-76
2023/09/15 00:20:45;;;;;;;1.20;1.10;;;;;;;;;;6134744;23;19994;-76
2023/09/15 00:23:11;;;;;;;1.20;1.00;;;;;;;;;;6124859;23;20334;-75
2023/09/15 00:25:37;;;;;;;1.23;1.13;;;;;;;;;;6134616;23;20001;-75
2023/09/15 00:28:04;;;;;;;1.83;1.20;;;24.20;60.70;;;;;;6108895;23;20005;-76
2023/09/15 00:30:30;;;;;;;1.10;1.00;;;;;;;;;;6134580;23;20030;-79
2023/09/15 00:32:56;;;;;;;1.83;1.30;;;;;;;;;;6098818;23;20061;-79
2023/09/15 00:35:23;;;;;;;1.17;1.08;;;;;;;;;;6134136;23;20006;-79
2023/09/15 00:37:50;;;;;;;1.15;1.05;;;24.20;60.20;;;;;;6134511;23;20057;-78
2023/09/15 00:40:19;;;;;;;1.10;1.00;;;24.10;60.20;;;;;;6124784;23;20006;-78
2023/09/15 00:42:46;;;;;;;1.13;1.02;;;24.10;59.60;;;;;;6134321;23;20295;-78
2023/09/15 00:45:14;;;;;;;1.77;1.02;;;24.20;60.30;;;;;;6134951;23;20002;-78
2023/09/15 00:47:43;;;;;;;0.98;0.88;;;24.20;60.00;;;;;;6098703;23;19998;-78
2023/09/15 00:50:13;;;;;;;1.17;1.07;;;;;;;;;;6134531;23;20133;-79
2023/09/15 00:52:39;;;;;;;1.13;1.02;;;;;;;;;;6134539;23;20002;-78
2023/09/15 00:55:08;;;;;;;1.20;1.10;;;;;;;;;;6134195;23;20065;-79
2023/09/15 00:57:34;;;;;;;1.00;0.90;;;;;;;;;;6134419;23;20338;-79
2023/09/15 01:00:02;;;;;;;1.00;0.93;;;;;;;;;;6134097;23;20117;-79
2023/09/15 01:02:28;;;;;;;0.90;0.90;;;;;;;;;;6133824;23;20006;-78
2023/09/15 01:04:54;;;;;;;1.60;1.10;;;;;;;;;;6134354;23;20013;-79
2023/09/15 01:07:20;;;;;;;1.02;0.93;;;;;;;;;;6125080;23;20064;-79
2023/09/15 01:09:47;;;;;;;1.40;1.15;;;;;;;;;;6124498;23;20014;-79
2023/09/15 01:12:13;;;;;;;0.95;0.90;;;;;;;;;;6124867;23;20002;-79
2023/09/15 01:14:40;;;;;;;1.00;0.93;;;;;;;;;;6125274;23;20022;-79
2023/09/15 01:17:12;;;;;;;1.20;1.10;;;24.00;60.20;;;;;;6124957;23;20006;-79
2023/09/15 01:19:50;;;;;;;1.17;1.08;;;;;;;;;;6124846;23;19995;-79
2023/09/15 01:22:17;;;;;;;1.35;0.90;;;;;;;;;;6124925;23;20017;-79
2023/09/15 01:25:09;;;;;;;1.80;1.33;;;24.00;55.00;;;;;;6125156;23;19998;-78
2023/09/15 01:28:06;;;;;;;1.13;0.90;;;24.00;54.90;;;;;;6122044;23;20053;-75
2023/09/15 01:30:33;;;;;;;0.82;0.80;;;;;;;;;;6134100;23;20009;-75
2023/09/15 01:33:00;;;;;;;1.60;1.17;;;24.00;60.80;;;;;;6134004;23;19998;-75
2023/09/15 01:35:26;;;;;;;1.40;1.05;;;;;;;;;;6134143;23;20013;-75
2023/09/15 01:37:52;;;;;;;1.60;1.08;;;;;;;;;;6134251;23;19998;-75
2023/09/15 01:40:18;;;;;;;1.60;1.02;;;;;;;;;;6134145;23;20084;-76
2023/09/15 01:42:48;;;;;;;1.30;1.13;;;23.90;60.30;;;;;;6128456;23;20045;-76
2023/09/15 01:45:14;;;;;;;1.20;1.10;;;;;;;;;;6136369;23;20017;-76
2023/09/15 01:47:40;;;;;;;1.30;1.20;;;23.90;58.90;;;;;;6136273;23;20009;-74
2023/09/15 01:50:07;;;;;;;1.27;1.20;;;23.90;60.80;;;;;;6135974;23;20002;-74
2023/09/15 01:52:33;;;;;;;2.35;1.17;;;;;;;;;;6126217;23;19994;-74
2023/09/15 01:55:00;;;;;;;1.30;1.15;;;;;;;;;;6135914;23;20020;-75
2023/09/15 01:57:26;;;;;;;1.40;1.20;;;;;;;;;;6126616;23;20056;-75
2023/09/15 01:59:52;;;;;;;1.75;1.20;;;;;;;;;;6126459;23;20006;-75
2023/09/15 02:02:18;;;;;;;1.45;1.17;;;;;;;;;;6136261;23;20006;-75
2023/09/15 02:04:44;;;;;;;1.77;1.30;;;;;;;;;;6136035;23;20002;-75
2023/09/15 02:07:10;;;;;;;1.45;1.20;;;;;;;;;;6136240;23;20002;-75
2023/09/15 02:09:36;;;;;;;1.20;1.08;;;;;;;;;;6135978;23;20002;-75
2023/09/15 02:12:02;;;;;;;1.35;1.25;;;;;;;;;;6135801;23;19995;-75
2023/09/15 02:14:28;;;;;;;1.27;1.17;;;;;;;;;;6135759;23;20020;-75
2023/09/15 02:16:54;;;;;;;1.80;1.20;;;;;;;;;;6126207;23;20002;-75
2023/09/15 02:19:20;;;;;;;1.10;1.00;;;;;;;;;;6135793;23;20010;-75
2023/09/15 02:21:46;;;;;;;1.30;1.20;;;;;;;;;;6135850;23;20034;-75
2023/09/15 02:24:12;;;;;;;1.17;1.08;;;;;;;;;;6135621;23;20081;-75
2023/09/15 02:26:39;;;;;;;1.15;1.00;;;23.70;61.00;;;;;;6126148;23;20045;-75
2023/09/15 02:29:05;;;;;;;1.05;1.00;;;;;;;;;;6136119;23;20377;-75
2023/09/15 02:31:31;;;;;;;1.30;1.17;;;;;;;;;;6126003;23;19998;-75
2023/09/15 02:33:59;;;;;;;1.27;1.17;;;;;;;;;;6135755;23;20008;-75
2023/09/15 02:36:26;;;;;;;1.67;1.00;;;;;;;;;;6126098;23;20009;-75
2023/09/15 02:38:54;;;;;;;1.30;1.20;;;;;;;;;;6135392;23;20045;-76
2023/09/15 02:41:27;;;;;;;1.52;1.30;;;;;;;;;;6135604;23;20072;-78
2023/09/15 02:43:53;;;;;;;1.50;1.40;;;;;;;;;;6135594;23;20333;-79
2023/09/15 02:46:20;;;;;;;1.35;1.00;;;;;;;;;;6125542;23;20453;-78
2023/09/15 02:48:46;;;;;;;1.13;0.85;;;;;;;;;;6125600;23;20082;-78
2023/09/15 02:51:14;;;;;;;1.42;1.33;;;;;;;;;;6126015;23;20077;-78
2023/09/15 02:53:41;;;;;;;1.05;0.95;;;;;;;;;;6125250;23;19998;-79
2023/09/15 02:56:08;;;;;;;1.58;1.20;;;;;;;;;;6125908;23;20014;-79
2023/09/15 02:58:36;;;;;;;0.75;0.70;;;;;;;;;;6126262;23;19998;-76
2023/09/15 03:01:12;;;;;;;1.90;1.25;;;23.60;55.40;;;;;;6125324;23;20013;-75
2023/09/15 03:03:39;;;;;;;1.83;1.40;;;;;;;;;;6125254;23;20014;-75
2023/09/15 03:06:06;;;;;;;1.13;1.02;;;23.50;61.10;;;;;;6125474;23;20008;-75
2023/09/15 03:08:33;;;;;;;1.40;1.30;;;;;;;;;;6125927;23;20006;-76
2023/09/15 03:11:12;;;;;;;1.15;1.00;;;;;;;;;;6135430;23;20002;-78
2023/09/15 03:13:38;;;;;;;1.20;1.10;;;;;;;;;;6116753;23;20012;-78
2023/09/15 03:16:09;;;;;;;2.35;1.30;;;22.00;60.50;;;;;;6099308;23;20065;-78
2023/09/15 03:18:35;;;;;;;1.75;1.20;;;;;;;;;;6135108;23;20464;-77
2023/09/15 03:21:01;;;;;;;1.63;1.40;;;23.50;61.20;;;;;;6099313;23;20017;-79
2023/09/15 03:23:27;;;;;;;1.45;1.08;;;;;;;;;;6135102;23;20441;-77
2023/09/15 03:26:03;;;;;;;1.35;1.10;;;;;;;;;;6099760;23;20006;-77
2023/09/15 03:28:31;;;;;;;1.45;1.15;;;;;;;;;;6109393;23;20005;-78
2023/09/15 03:30:57;;;;;;;1.35;1.25;;;;;;;;;;6109212;23;20016;-78
2023/09/15 03:33:24;;;;;;;1.83;1.02;;;;;;;;;;6135096;23;20035;-78
2023/09/15 03:35:50;;;;;;;1.30;1.20;;;;;;;;;;6134857;23;20021;-78
2023/09/15 03:38:16;;;;;;;1.95;1.20;;;;;;;;;;6135164;23;20076;-78
2023/09/15 03:40:42;;;;;;;2.45;1.30;;;;;;;;;;6135057;23;20111;-78
2023/09/15 03:43:08;;;;;;;1.45;1.10;;;;;;;;;;6134919;23;19994;-78
2023/09/15 03:45:34;;;;;;;1.33;1.23;;;23.40;61.10;;;;;;6134892;23;20045;-78
2023/09/15 03:48:00;;;;;;;2.00;1.42;;;;;;;;;;6134922;23;20081;-78
2023/09/15 03:50:26;;;;;;;1.88;1.30;;;;;;;;;;6135380;23;20060;-78
2023/09/15 03:52:53;;;;;;;1.48;1.38;;;;;;;;;;6125661;23;20043;-78
2023/09/15 03:55:19;;;;;;;1.25;1.10;;;;;;;;;;6126015;23;20061;-78
2023/09/15 03:57:46;;;;;;;1.40;1.30;;;;;;;;;;6125242;23;20081;-78
2023/09/15 04:00:17;;;;;;;1.45;1.25;;;;;;;;;;6125851;23;20311;-78
2023/09/15 04:02:44;;;;;;;1.63;1.52;;;;;;;;;;6125145;23;20017;-78
2023/09/15 04:05:10;;;;;;;1.38;1.20;;;;;;;;;;6098494;23;20012;-78
2023/09/15 04:07:37;;;;;;;1.30;1.20;;;;;;;;;;6134797;23;19998;-78
2023/09/15 04:10:07;;;;;;;1.60;1.50;;;23.20;58.50;;;;;;6134553;23;19994;-78
2023/09/15 04:12:34;;;;;;;1.60;1.10;;;23.30;61.20;;;;;;6134606;23;20002;-78
2023/09/15 04:15:00;;;;;;;1.92;1.58;;;;;;;;;;6134580;23;20006;-78
2023/09/15 04:17:26;;;;;;;1.33;1.20;;;;;;;;;;6134659;23;20073;-78
2023/09/15 04:19:52;;;;;;;1.98;1.15;;;;;;;;;;6134478;23;20022;-78
2023/09/15 04:22:18;;;;;;;1.35;1.20;;;;;;;;;;6125002;23;19998;-78
2023/09/15 04:24:44;;;;;;;1.70;1.58;;;;;;;;;;6135022;23;20009;-75
2023/09/15 04:27:10;;;;;;;1.40;1.30;;;;;;;;;;6134413;23;19998;-75
2023/09/15 04:29:51;;;;;;;3.53;1.60;;;23.10;61.20;;;;;;6134495;23;20021;-75
2023/09/15 04:32:17;;;;;;;1.50;1.40;;;;;;;;;;6134505;23;20335;-75
2023/09/15 04:34:43;;;;;;;1.35;1.25;;;;;;;;;;6134209;23;20013;-77
2023/09/15 04:37:09;;;;;;;1.48;1.10;;;;;;;;;;6108461;23;20032;-78
2023/09/15 04:39:35;;;;;;;1.35;1.25;;;;;;;;;;6098730;23;20049;-78
2023/09/15 04:42:01;;;;;;;1.95;1.25;;;;;;;;;;6134391;23;19994;-78
2023/09/15 04:44:27;;;;;;;2.25;1.13;;;;;;;;;;6134589;23;19994;-78
2023/09/15 04:46:53;;;;;;;1.20;1.10;;;;;;;;;;6134605;23;20030;-78
2023/09/15 04:49:19;;;;;;;2.08;1.30;;;;;;;;;;6134619;23;20057;-78
2023/09/15 04:51:45;;;;;;;1.40;1.30;;;;;;;;;;6134825;23;20002;-75
2023/09/15 04:54:11;;;;;;;2.13;1.92;;;;;;;;;;6134203;23;19994;-75
2023/09/15 04:56:37;;;;;;;1.30;1.20;;;;;;;;;;6134408;23;20008;-75
2023/09/15 04:59:03;;;;;;;1.15;1.05;;;;;;;;;;6134124;23;19994;-76
2023/09/15 05:01:30;;;;;;;1.50;1.20;;;;;;;;;;6134294;23;20002;-76
2023/09/15 05:03:56;;;;;;;1.70;1.50;;;;;;;;;;6134101;23;20092;-79
2023/09/15 05:06:22;;;;;;;2.78;1.23;;;;;;;;;;6108624;23;19998;-79
2023/09/15 05:08:48;;;;;;;1.35;1.23;;;;;;;;;;6134465;23;20006;-78
2023/09/15 05:11:14;;;;;;;1.00;1.00;;;;;;;;;;6124689;23;20008;-79
2023/09/15 05:13:40;;;;;;;1.35;1.17;;;;;;;;;;6134440;23;19998;-78
2023/09/15 05:16:07;;;;;;;1.60;1.50;;;;;;;;;;6134145;23;20088;-78
2023/09/15 05:18:33;;;;;;;1.50;1.40;;;;;;;;;;6098583;23;19998;-78
2023/09/15 05:20:59;;;;;;;1.30;1.20;;;;;;;;;;6134670;23;20029;-78
2023/09/15 05:23:25;;;;;;;1.20;1.02;;;;;;;;;;6134165;23;20005;-78
2023/09/15 05:25:53;;;;;;;1.30;1.20;;;;;;;;;;6133970;23;20036;-78
2023/09/15 05:28:19;;;;;;;1.63;1.52;;;;;;;;;;6098116;23;20516;-77
2023/09/15 05:30:45;;;;;;;1.30;1.20;;;;;;;;;;6133997;23;19998;-78
2023/09/15 05:33:12;;;;;;;1.65;1.20;;;;;;;;;;6134141;23;20005;-77
2023/09/15 05:35:38;;;;;;;1.48;1.38;;;;;;;;;;6139835;23;20017;-77
2023/09/15 05:38:04;;;;;;;1.00;0.88;;;;;;;;;;6134782;23;20426;-76
2023/09/15 05:40:30;;;;;;;1.30;1.20;;;;;;;;;;6134293;23;20017;-77
2023/09/15 05:42:58;;;;;;;1.45;1.30;;;;;;;;;;6134143;23;20032;-78
2023/09/15 05:45:24;;;;;;;1.42;1.20;;;;;;;;;;6098573;23;20029;-77
2023/09/15 05:47:50;;;;;;;1.38;1.27;;;;;;;;;;6134362;23;20005;-80
2023/09/15 05:50:16;;;;;;;1.85;1.50;;;;;;;;;;6134537;23;20082;-77
2023/09/15 05:52:42;;;;;;;1.40;1.30;;;;;;;;;;6133901;23;20006;-77
2023/09/15 05:55:09;;;;;;;1.33;1.13;;;22.80;61.40;;;;;;6133803;23;20010;-76
2023/09/15 05:57:36;;;;;;;1.50;1.40;;;;;;;;;;6133834;23;19997;-76
2023/09/15 06:00:02;;;;;;;1.35;1.25;;;;;;;;;;6133864;23;20002;-76
2023/09/15 06:02:29;;;;;;;1.38;1.27;;;;;;;;;;6123916;23;20412;-76
2023/09/15 06:04:55;;;;;;;1.65;1.50;;;;;;;;;;6124108;23;20438;-75
2023/09/15 06:07:22;;;;;;;1.27;1.17;;;;;;;;;;6124398;23;20036;-77
2023/09/15 06:09:48;;;;;;;1.58;1.48;;;;;;;;;;6124448;23;20001;-77
2023/09/15 06:12:15;;;;;;;1.30;1.20;;;;;;;;;;6123836;23;20424;-77
2023/09/15 06:14:41;;;;;;;1.45;1.35;;;;;;;;;;6124378;23;20017;-77
2023/09/15 06:17:08;;;;;;;1.27;1.17;;;;;;;;;;6124375;23;20025;-74
2023/09/15 06:19:34;;;;;;;1.67;1.27;;;;;;;;;;6124438;23;20008;-74
2023/09/15 06:22:01;;;;;;;2.45;1.48;;;;;;;;;;6125877;23;20006;-72
2023/09/15 06:24:27;;;;;;;2.10;1.33;;;;;;;;;;6124402;23;20002;-74
2023/09/15 06:26:54;;;;;;;1.45;1.35;;;;;;;;;;6124017;23;20426;-74
2023/09/15 06:29:21;;;;;;;1.60;1.20;;;;;;;;;;6125215;23;19998;-72
2023/09/15 06:31:48;;;;;;;2.15;1.20;;;;;;;;;;6125738;23;20037;-73
2023/09/15 06:34:14;;;;;;;1.40;1.30;;;;;;;;;;6125599;23;20009;-73
2023/09/15 06:36:41;;;;;;;1.40;1.30;;;;;;;;;;6125646;23;20470;-75
2023/09/15 06:39:07;;;;;;;1.58;1.35;;;;;;;;;;6125630;23;20009;-73
2023/09/15 06:41:34;;;;;;;1.30;1.20;;;;;;;;;;6125918;23;20043;-73
2023/09/15 06:44:00;;;;;;;2.25;1.20;;;;;;;;;;6125909;23;20002;-74
2023/09/15 06:46:27;;;;;;;1.90;1.40;;;;;;;;;;6126225;23;20445;-73
2023/09/15 06:48:53;;;;;;;1.30;1.20;;;;;;;;;;6125974;23;20005;-73
2023/09/15 06:51:20;;;;;;;1.40;1.30;;;;;;;;;;6125862;23;20013;-73
2023/09/15 06:53:46;;;;;;;3.30;1.55;;;;;;;;;;6125667;23;20013;-72
2023/09/15 06:56:13;;;;;;;1.40;1.30;;;;;;;;;;6125748;23;20014;-72
2023/09/15 06:58:39;;;;;;;1.50;1.40;;;;;;;;;;6125734;23;20077;-72
2023/09/15 07:01:07;;;;;;;1.45;1.30;;;;;;;;;;6125825;23;20006;-73
2023/09/15 07:03:33;;;;;;;1.40;1.30;;;;;;;;;;6125198;23;20076;-72
2023/09/15 07:06:00;;;;;;;1.33;1.15;;;;;;;;;;6125701;23;20017;-72
2023/09/15 07:08:26;;;;;;;1.50;1.40;;;;;;;;;;6125156;23;20509;-73
2023/09/15 07:10:53;;;;;;;2.15;1.58;;;;;;;;;;6125236;23;20061;-72
2023/09/15 07:13:19;;;;;;;1.75;1.40;;;;;;;;;;6099896;23;20037;-73
2023/09/15 07:15:47;;;;;;;1.55;1.25;;;;;;;;;;6125599;23;20010;-80
2023/09/15 07:18:14;;;;;;;1.40;1.30;;;;;;;;;;6125798;23;20376;-77
2023/09/15 07:20:40;;;;;;;1.60;1.50;;;;;;;;;;6125561;23;20022;-78
2023/09/15 07:23:07;;;;;;;1.25;1.10;;;;;;;;;;6125503;23;20077;-78
2023/09/15 07:25:33;;;;;;;1.10;0.98;;;;;;;;;;6125100;23;20001;-78
2023/09/15 07:27:59;;;;;;;1.08;1.00;;;;;;;;;;6135162;23;20079;-77
2023/09/15 07:30:25;;;;;;;1.40;1.27;;;;;;;;;;6099240;23;20005;-77
2023/09/15 07:32:52;;;;;;;1.73;1.42;;;;;;;;;;6135242;23;20017;-77
2023/09/15 07:35:18;;;;;;;3.13;1.40;;;;;;;;;;6125011;23;20017;-74
2023/09/15 07:37:44;;;;;;;1.25;1.15;;;;;;;;;;6125325;23;20025;-73
2023/09/15 07:40:11;;;;;;;1.23;0.98;;;;;;;;;;6125122;23;20314;-73
2023/09/15 07:42:38;;;;;;;1.60;1.50;;;;;;;;;;6125223;23;20331;-73
2023/09/15 07:45:04;;;;;;;1.77;1.05;;;;;;;;;;6134839;23;20002;-73
2023/09/15 07:47:31;;;;;;;1.70;1.50;;;;;;;;;;6134813;23;20032;-73
2023/09/15 07:49:57;;;;;;;1.65;1.40;;;;;;;;;;6134746;23;20033;-73
2023/09/15 07:52:25;;;;;;;1.60;1.30;;;;;;;;;;6134796;23;20000;-77
2023/09/15 07:54:51;;;;;;;2.08;1.10;;;;;;;;;;6125334;23;20017;-77
2023/09/15 07:57:17;;;;;;;1.88;1.20;;;;;;;;;;6134656;23;20044;-77
2023/09/15 07:59:43;;;;;;;2.78;1.15;;;;;;;;;;6134635;23;20418;-77
2023/09/15 08:02:09;;;;;;;1.30;1.20;;;;;;;;;;6134393;23;20386;-77
2023/09/15 08:04:35;;;;;;;2.17;1.10;;;;;;;;;;6134779;23;19998;-76
2023/09/15 08:07:02;;;;;;;1.48;1.35;;;;;;;;;;6134805;23;20005;-77
2023/09/15 08:09:29;;;;;;;1.92;1.10;;;;;;;;;;6134442;23;20002;-77
2023/09/15 08:11:59;;;;;;;2.20;1.30;;;;;;;;;;6134786;23;19998;-73
2023/09/15 08:14:25;;;;;;;0.88;0.88;;;;;;;;;;6134321;23;20001;-72
2023/09/15 08:16:51;;;;;;;1.35;1.05;;;;;;;;;;6134165;23;20009;-73
2023/09/15 08:19:18;;;;;;;0.93;0.93;;;;;;;;;;6134271;23;19998;-73
2023/09/15 08:21:44;;;;;;;1.55;1.30;;;;;;;;;;6124619;23;20069;-73
2023/09/15 08:24:10;;;;;;;2.75;1.40;;;;;;;;;;6134160;23;20330;-73
2023/09/15 08:26:36;;;;;;;1.45;1.10;;;;;;;;;;6134127;23;20021;-74
2023/09/15 08:29:04;;;;;;;3.17;1.48;;;;;;;;;;6124922;23;20421;-73
2023/09/15 08:31:30;;;;;;;1.30;1.20;;;;;;;;;;6134494;23;20415;-73
2023/09/15 08:33:56;;;;;;;3.45;1.23;;;;;;;;;;6134155;23;20120;-74
2023/09/15 08:36:22;;;;;;;2.55;1.30;;;;;;;;;;6134176;23;20006;-74
2023/09/15 08:38:48;;;;;;;3.28;1.30;;;;;;;;;;6124755;23;20002;-74
2023/09/15 08:41:23;;;;;;;2.55;1.30;;;22.90;63.50;;;;;;6124765;23;20084;-74
2023/09/15 08:43:51;;;;;;;1.40;1.30;;;;;;;;;;6124415;23;20049;-74
2023/09/15 08:46:18;;;;;;;1.33;1.20;;;23.00;63.50;;;;;;6124893;23;20060;-75
2023/09/15 08:48:49;;;;;;;2.08;1.30;;;23.00;63.60;;;;;;6124968;23;19998;-77
2023/09/15 08:51:17;;;;;;;1.40;1.30;;;22.90;63.90;;;;;;6134869;23;20329;-77
2023/09/15 08:53:43;;;;;;;1.60;1.20;;;23.00;63.80;;;;;;6134404;23;19994;-77
2023/09/15 08:56:10;;;;;;;1.30;1.15;;;;;;;;;;6134368;23;20093;-77
2023/09/15 08:58:36;;;;;;;2.25;1.10;;;23.10;61.30;;;;;;6134429;23;19994;-77
2023/09/15 09:01:07;;;;;;;1.73;1.27;;;23.10;64.00;;;;;;6134091;23;20024;-77
2023/09/15 09:03:38;;;;;;;1.27;1.10;;;23.20;58.80;;;;;;6124507;23;20074;-76
2023/09/15 09:06:10;;;;;;;1.45;1.17;;;23.30;64.30;;;;;;6124486;23;20456;-76
2023/09/15 09:08:41;;;;;;;1.23;1.13;;;23.20;58.30;;;;;;6127505;23;20087;-76
2023/09/15 09:11:08;;;;;;;1.65;1.33;;;;;;;;;;6125209;23;20002;-74
2023/09/15 09:13:35;;;;;;;2.60;1.20;;;;;;;;;;6124490;23;20002;-73
2023/09/15 09:16:05;;;;;;;1.65;1.08;;;23.30;64.50;;;;;;6124455;23;20037;-74
2023/09/15 09:18:32;;;;;;;1.90;1.20;;;23.40;64.70;;;;;;6124724;23;20018;-74
2023/09/15 09:20:59;;;;;;;1.58;1.42;;;;;;;;;;6124222;23;20001;-76
2023/09/15 09:23:25;;;;;;;1.60;1.20;;;;;;;;;;6124223;23;20021;-75
2023/09/15 09:25:52;;;;;;;2.33;1.20;;;;;;;;;;6124327;23;20016;-77
2023/09/15 09:28:19;;;;;;;1.70;1.48;;;;;;;;;;6134290;23;19998;-76
2023/09/15 09:30:45;;;;;;;1.27;1.17;;;;;;;;;;6124320;23;20002;-77
2023/09/15 09:33:12;;;;;;;2.42;1.35;;;;;;;;;;6124659;23;20441;-77
2023/09/15 09:35:38;;;;;;;1.83;1.20;;;;;;;;;;6124213;23;20048;-77
2023/09/15 09:38:05;;;;;;;1.73;1.35;;;;;;;;;;6124553;23;20034;-78
2023/09/15 09:40:36;;;;;;;1.60;1.08;;;23.90;58.60;;;;;;6124356;23;20002;-77
2023/09/15 09:43:03;;;;;;;3.67;1.40;;;23.90;64.20;;;;;;6134939;23;19998;-77
2023/09/15 09:45:32;;;;;;;1.30;1.20;;;;;;;;;;6124662;23;20006;-77
2023/09/15 09:48:16;;;;;;;2.72;1.48;;;;;;;;;;6121765;23;20375;-77
2023/09/15 09:50:42;;;;;;;1.35;1.13;;;;;;;;;;6124366;23;20002;-77
2023/09/15 09:53:09;;;;;;;1.95;1.13;;;;;;;;;;6123976;23;20009;-77
2023/09/15 09:55:36;;;;;;;2.05;1.40;;;;;;;;;;6124363;23;20037;-76
2023/09/15 09:58:05;;;;;;;1.40;1.30;;;24.40;58.50;;;;;;6124302;23;20006;-77
2023/09/15 10:00:33;;;;;;;2.38;1.30;;;24.40;64.00;;;;;;6124163;23;19998;-76
2023/09/15 10:03:00;;;;;;;2.17;1.02;;;;;;;;;;6123633;23;20021;-76
2023/09/15 10:05:27;;;;;;;2.33;1.45;;;;;;;;;;6125595;23;20002;-76
2023/09/15 10:07:53;;;;;;;2.45;1.40;;;;;;;;;;6125613;23;20002;-76
2023/09/15 10:10:21;;;;;;;1.33;1.23;;;24.60;64.00;;;;;;6126675;23;20304;-78
2023/09/15 10:12:48;;;;;;;1.40;1.30;;;;;;;;;;6125730;23;20001;-78
2023/09/15 10:15:15;;;;;;;2.83;1.25;;;24.80;58.30;;;;;;6125724;23;20437;-79
2023/09/15 10:17:42;;;;;;;2.10;1.40;;;24.90;64.00;;;;;;6125948;23;20427;-78
2023/09/15 10:20:09;;;;;;;2.22;1.20;;;;;;;;;;6125845;23;20073;-77
2023/09/15 10:22:37;;;;;;;1.58;1.48;;;;;;;;;;6125773;23;20418;-77
2023/09/15 10:25:04;;;;;;;2.67;1.85;;;;;;;;;;6125975;23;20009;-76
2023/09/15 10:27:30;;;;;;;1.85;1.52;;;;;;;;;;6126079;23;20070;-77
2023/09/15 10:30:04;;;;;;;1.85;1.30;;;25.30;58.40;;;;;;6125749;23;20438;-77
2023/09/15 10:32:36;;;;;;;1.88;1.30;;;25.30;63.90;;;;;;6135375;23;20002;-77
2023/09/15 10:35:02;;;;;;;2.55;1.70;;;;;;;;;;6135404;23;20009;-77
2023/09/15 10:37:29;;;;;;;1.83;1.20;;;25.40;63.60;;;;;;6135689;23;20402;-77
2023/09/15 10:39:59;;;;;;;1.60;1.23;;;25.40;57.80;;;;;;6136339;23;19998;-77
2023/09/15 10:42:26;;;;;;;2.35;1.27;;;25.60;61.50;;;;;;6126144;23;19998;-77
2023/09/15 10:44:53;;;;;;;1.88;1.58;;;;;;;;;;6126315;23;20329;-77
2023/09/15 10:47:20;;;;;;;1.33;1.23;;;25.70;62.20;;;;;;6125675;23;20496;-77
2023/09/15 10:49:55;;;;;;;3.03;1.60;;;25.80;63.20;;;;;;6126126;23;20054;-77
2023/09/15 10:52:40;;;;;;;1.52;1.10;;;25.80;63.30;;;;;;6100316;23;19994;-77
2023/09/15 10:55:07;;;;;;;1.50;1.30;;;26.00;59.90;;;;;;6125673;23;20488;-76
2023/09/15 10:57:35;;;;;;;2.55;1.20;;;26.00;63.00;;;;;;6126132;23;20402;-77
2023/09/15 11:00:06;;;;;;;1.15;1.05;;;26.10;62.80;;;;;;6125754;23;19998;-79
2023/09/15 11:02:35;;;;;;;2.95;1.33;;;;;;;;;;6125403;23;20031;-75
2023/09/15 11:05:01;;;;;;;1.60;1.20;;;;;;;;;;6125608;23;20002;-76
2023/09/15 11:07:30;;;;;;;1.67;1.40;;;26.20;62.60;;;;;;6125970;23;19998;-77
2023/09/15 11:09:57;;;;;;;1.75;1.40;;;;;;;;;;6125318;23;20002;-76
2023/09/15 11:12:24;;;;;;;1.23;1.08;;;;;;;;;;6125615;23;20026;-78
2023/09/15 11:14:58;;;;;;;1.85;1.13;;;26.50;62.80;;;;;;6125221;23;20307;-81
2023/09/15 11:17:24;;;;;;;1.25;1.15;;;;;;;;;;6135220;23;20002;-80
2023/09/15 11:19:50;;;;;;;1.13;1.02;;;;;;;;;;6099225;23;20088;-74
2023/09/15 11:22:17;;;;;;;1.60;1.30;;;;;;;;;;6134788;23;19994;-74
2023/09/15 11:24:43;;;;;;;1.05;0.82;;;;;;;;;;6125310;23;20358;-75
2023/09/15 11:27:09;;;;;;;3.00;1.40;;;;;;;;;;6134786;23;20065;-73
2023/09/15 11:29:35;;;;;;;1.20;1.00;;;;;;;;;;6098802;23;20046;-76
2023/09/15 11:32:01;;;;;;;1.58;1.10;;;;;;;;;;6134639;23;20001;-74
2023/09/15 11:34:27;;;;;;;1.52;1.23;;;;;;;;;;6125120;23;20002;-75
2023/09/15 11:36:58;;;;;;;1.35;1.23;;;26.90;62.20;;;;;;6135349;23;20056;-74
2023/09/15 11:39:24;;;;;;;1.52;1.10;;;;;;;;;;6125662;23;20002;-76
2023/09/15 11:41:53;;;;;;;0.82;0.82;;;;;;;;;;6135022;23;20006;-76
2023/09/15 11:44:26;;;;;;;1.27;0.70;;;27.20;56.40;;;;;;6135358;23;20454;-76
2023/09/15 11:46:55;;;;;;;1.95;0.95;;;27.30;61.40;;;;;;6134808;23;20369;-81
2023/09/15 11:49:22;;;;;;;1.20;1.10;;;27.40;61.80;;;;;;6125247;23;19994;-78
2023/09/15 11:51:49;;;;;;;1.38;1.00;;;27.80;61.70;;;;;;6124762;23;20005;-79
2023/09/15 11:54:15;;;;;;;1.08;0.98;;;;;;;;;;6134362;23;20006;-79
2023/09/15 11:56:43;;;;;;;1.15;1.05;;;27.60;61.40;;;;;;6134281;23;20037;-79
2023/09/15 11:59:09;;;;;;;0.90;0.90;;;;;;;;;;6125150;23;20021;-78
2023/09/15 12:01:36;;;;;;;1.25;0.77;;;27.70;59.00;;;;;;6134691;23;20056;-79
2023/09/15 12:04:03;;;;;;;2.30;0.90;;;;;;;;;;6099191;23;20009;-77
2023/09/15 12:06:29;;;;;;;2.67;0.80;;;;;;;;;;6134612;23;20017;-77
2023/09/15 12:08:55;;;;;;;0.90;0.80;;;;;;;;;;6134773;23;20053;-76
2023/09/15 12:11:21;;;;;;;1.15;0.90;;;;;;;;;;6134456;23;20045;-75
2023/09/15 12:13:51;;;;;;;1.23;0.95;;;;;;;;;;6124908;23;20068;-76
2023/09/15 12:16:18;;;;;;;1.05;0.95;;;;;;;;;;6124570;23;20438;-80
2023/09/15 12:18:49;;;;;;;2.08;0.80;;;28.10;55.10;;;;;;6124785;23;20026;-80
2023/09/15 12:21:16;;;;;;;1.67;0.98;;;;;;;;;;6124901;23;20329;-80
2023/09/15 12:23:42;;;;;;;1.20;1.00;;;27.90;59.70;;;;;;6125219;23;19998;-79
2023/09/15 12:26:10;;;;;;;2.83;1.15;;;27.70;61.60;;;;;;6125006;23;19998;-80
2023/09/15 12:28:37;;;;;;;1.15;0.85;;;;;;;;;;6125117;23;20345;-79
2023/09/15 12:31:04;;;;;;;1.00;0.70;;;;;;;;;;6124931;23;20040;-80
2023/09/15 12:33:31;;;;;;;0.85;0.70;;;;;;;;;;6125338;23;20002;-80
2023/09/15 12:36:02;;;;;;;1.13;1.00;;;27.40;63.00;;;;;;6125569;23;20025;-79
2023/09/15 12:38:28;;;;;;;0.93;0.80;;;;;;;;;;6124784;23;20001;-75
2023/09/15 12:40:55;;;;;;;0.98;0.70;;;;;;;;;;6124985;23;20151;-76
2023/09/15 12:43:21;;;;;;;0.93;0.60;;;;;;;;;;6124928;23;19998;-77
2023/09/15 12:45:47;;;;;;;1.48;0.77;;;;;;;;;;6124894;23;20112;-77
2023/09/15 12:48:13;;;;;;;1.05;0.70;;;;;;;;;;6134498;23;20065;-77
2023/09/15 12:50:39;;;;;;;0.73;0.73;;;;;;;;;;6134403;23;20006;-77
2023/09/15 12:53:05;;;;;;;0.90;0.90;;;;;;;;;;6134215;23;19994;-77
2023/09/15 12:55:31;;;;;;;1.25;1.08;;;;;;;;;;6133989;23;20021;-77
2023/09/15 12:57:57;;;;;;;1.45;1.33;;;;;;;;;;6134153;23;19998;-77
2023/09/15 13:00:23;;;;;;;1.23;1.13;;;;;;;;;;6134352;23;20005;-78
2023/09/15 13:02:50;;;;;;;2.00;1.10;;;;;;;;;;6124124;23;20037;-77
2023/09/15 13:05:16;;;;;;;1.35;1.20;;;;;;;;;;6124920;23;20065;-77
2023/09/15 13:07:44;;;;;;;1.45;1.10;;;27.70;61.20;;;;;;6124243;23;20056;-77
2023/09/15 13:10:11;;;;;;;1.63;1.20;;;;;;;;;;6124670;23;20002;-74
2023/09/15 13:12:40;;;;;;;2.03;1.20;;;28.30;60.50;;;;;;6124274;23;20437;-75
2023/09/15 13:15:07;;;;;;;3.63;1.50;;;28.10;60.20;;;;;;6124266;23;20091;-74
2023/09/15 13:17:34;;;;;;;2.55;1.45;;;;;;;;;;6124357;23;20005;-74
2023/09/15 13:20:06;;;;;;;1.90;1.38;;;;;;;;;;6133824;23;20009;-74
2023/09/15 13:22:32;;;;;;;1.55;1.33;;;;;;;;;;6124379;23;20378;-74
2023/09/15 13:24:58;;;;;;;2.00;1.38;;;;;;;;;;6124299;23;20363;-74
2023/09/15 13:27:24;;;;;;;2.47;1.42;;;;;;;;;;6133923;23;20001;-74
2023/09/15 13:29:51;;;;;;;1.92;1.30;;;;;;;;;;6124291;23;20006;-75
2023/09/15 13:32:17;;;;;;;2.08;1.33;;;;;;;;;;6124572;23;20008;-74
2023/09/15 13:34:43;;;;;;;1.88;1.50;;;;;;;;;;6124160;23;20069;-74
2023/09/15 13:37:10;;;;;;;3.92;1.80;;;;;;;;;;6124377;23;20116;-74
2023/09/15 13:39:39;;;;;;;2.30;1.42;;;;;;;;;;6126246;23;20018;-75
2023/09/15 13:42:05;;;;;;;2.72;1.50;;;;;;;;;;6135743;23;20009;-74
2023/09/15 13:44:31;;;;;;;1.88;1.40;;;;;;;;;;6135728;23;20025;-75
2023/09/15 13:46:57;;;;;;;3.35;1.75;;;;;;;;;;6135787;23;20077;-80
2023/09/15 13:49:23;;;;;;;1.55;1.40;;;;;;;;;;6136431;23;19998;-80
2023/09/15 13:51:49;;;;;;;2.33;1.33;;;;;;;;;;6126394;23;20374;-80
2023/09/15 13:54:18;;;;;;;1.98;1.58;;;;;;;;;;6125931;23;20002;-79
2023/09/15 13:56:44;;;;;;;2.53;1.58;;;;;;;;;;6125780;23;20014;-80
2023/09/15 13:59:11;;;;;;;2.40;1.70;;;;;;;;;;6126129;23;20002;-80
2023/09/15 14:01:39;;;;;;;3.30;1.50;;;;;;;;;;6125769;23;20006;-79
2023/09/15 14:04:07;;;;;;;1.30;1.20;;;29.00;56.30;;;;;;6126140;23;20010;-80
2023/09/15 14:06:33;;;;;;;2.75;1.38;;;;;;;;;;6126704;23;20009;-80
2023/09/15 14:08:59;;;;;;;1.73;1.30;;;;;;;;;;6126495;23;20425;-79
2023/09/15 14:11:26;;;;;;;1.40;1.30;;;;;;;;;;6126048;23;20025;-79
2023/09/15 14:13:53;;;;;;;2.55;1.58;;;;;;;;;;6126047;23;20149;-80
2023/09/15 14:16:19;;;;;;;1.67;1.50;;;;;;;;;;6126021;23;20117;-80